createdAt,value
2019-03-01T00:01:56.071Z,48.01
2019-03-01T00:04:54.149Z,48.11
2019-03-01T00:08:15.305Z,47.85
2019-03-01T00:11:29.439Z,47.76
2019-03-01T00:14:56.720Z,47.66
2019-03-01T00:17:58.559Z,47.37
2019-03-01T00:21:15.271Z,47.70
2019-03-01T00:24:12.836Z,47.27
2019-03-01T00:27:10.496Z,47.01
2019-03-01T00:29:58.208Z,46.89
2019-03-01T00:33:16.412Z,46.70
2019-03-01T00:36:46.602Z,46.48
2019-03-01T00:39:52.139Z,46.50
2019-03-01T00:42:52.008Z,45.91
2019-03-01T00:45:23.537Z,45.96
2019-03-01T00:47:55.403Z,46.12
2019-03-01T00:50:26.710Z,46.75
2019-03-01T00:52:58.037Z,46.96
2019-03-01T00:55:29.736Z,47.58
2019-03-01T00:58:01.027Z,47.95
2019-03-01T01:00:36.898Z,48.16
2019-03-01T01:03:08.352Z,48.23
2019-03-01T01:05:40.053Z,48.28
2019-03-01T01:08:11.466Z,47.95
2019-03-01T01:10:43.293Z,48.33
2019-03-01T01:13:14.900Z,48.15
2019-03-01T01:15:46.626Z,47.78
2019-03-01T01:18:18.329Z,47.64
2019-03-01T01:20:50.078Z,46.76
2019-03-01T01:23:21.449Z,46.24
2019-03-01T01:25:52.766Z,45.66
2019-03-01T01:28:24.295Z,45.18
2019-03-01T01:30:55.798Z,44.88
2019-03-01T01:33:27.361Z,44.60
2019-03-01T01:35:58.844Z,44.41
2019-03-01T01:38:30.328Z,44.11
2019-03-01T01:41:01.967Z,43.78
2019-03-01T01:43:33.527Z,43.89
2019-03-01T01:46:05.126Z,43.74
2019-03-01T01:48:36.873Z,43.85
2019-03-01T01:51:08.513Z,43.71
2019-03-01T01:53:40.040Z,43.72
2019-03-01T01:56:12.106Z,43.77
2019-03-01T01:58:43.770Z,43.61
2019-03-01T02:01:15.561Z,43.78
2019-03-01T02:03:47.299Z,43.73
2019-03-01T02:06:18.973Z,44.00
2019-03-01T02:08:50.354Z,44.16
2019-03-01T02:11:21.946Z,44.12
2019-03-01T02:13:53.725Z,43.89
2019-03-01T02:16:25.444Z,44.07
2019-03-01T02:18:57.974Z,44.63
2019-03-01T02:21:29.807Z,44.25
2019-03-01T02:24:01.424Z,44.09
2019-03-01T02:26:32.884Z,44.79
2019-03-01T02:29:05.701Z,45.36
2019-03-01T02:31:37.834Z,45.35
2019-03-01T02:34:09.205Z,45.38
2019-03-01T02:36:40.844Z,45.63
2019-03-01T02:39:12.482Z,45.86
2019-03-01T02:41:43.942Z,46.24
2019-03-01T02:44:15.244Z,46.20
2019-03-01T02:46:47.055Z,46.33
2019-03-01T02:49:18.918Z,45.80
2019-03-01T02:51:50.701Z,46.42
2019-03-01T02:54:22.393Z,46.57
2019-03-01T02:56:53.807Z,47.72
2019-03-01T02:59:25.154Z,48.13
2019-03-01T03:01:56.900Z,48.28
2019-03-01T03:04:29.264Z,49.00
2019-03-01T03:07:11.299Z,49.40
2019-03-01T03:09:42.941Z,49.61
2019-03-01T03:12:14.374Z,49.74
2019-03-01T03:14:46.021Z,49.84
2019-03-01T03:17:18.723Z,49.49
2019-03-01T03:19:50.259Z,49.61
2019-03-01T03:22:21.791Z,49.25
2019-03-01T03:24:53.166Z,49.23
2019-03-01T03:27:24.719Z,48.92
2019-03-01T03:29:56.491Z,49.04
2019-03-01T03:32:27.920Z,48.79
2019-03-01T03:34:59.566Z,49.14
2019-03-01T03:37:31.356Z,48.69
2019-03-01T03:40:03.101Z,49.06
2019-03-01T03:42:34.864Z,48.96
2019-03-01T03:45:07.126Z,48.88
2019-03-01T03:47:38.633Z,48.82
2019-03-01T03:50:11.463Z,49.20
2019-03-01T03:52:43.381Z,49.02
2019-03-01T03:55:15.595Z,49.26
2019-03-01T03:57:48.106Z,49.95
2019-03-01T04:00:20.438Z,48.99
2019-03-01T04:02:52.187Z,48.63
2019-03-01T04:05:23.943Z,48.39
2019-03-01T04:07:55.232Z,48.04
2019-03-01T04:10:26.880Z,48.24
2019-03-01T04:12:58.321Z,47.95
2019-03-01T04:15:30.240Z,47.87
2019-03-01T04:18:01.927Z,47.74
2019-03-01T04:20:33.650Z,47.47
2019-03-01T04:23:05.134Z,47.03
2019-03-01T04:25:36.555Z,46.64
2019-03-01T04:28:08.405Z,46.49
2019-03-01T04:30:39.818Z,46.27
2019-03-01T04:33:11.552Z,45.89
2019-03-01T04:35:43.176Z,45.70
2019-03-01T04:38:14.461Z,45.47
2019-03-01T04:40:46.100Z,45.41
2019-03-01T04:43:17.803Z,45.44
2019-03-01T04:45:49.551Z,45.69
2019-03-01T04:48:20.877Z,45.46
2019-03-01T04:50:52.539Z,45.32
2019-03-01T04:53:23.917Z,45.59
2019-03-01T04:55:55.344Z,45.56
2019-03-01T04:58:26.754Z,45.49
2019-03-01T05:00:58.549Z,45.39
2019-03-01T05:03:29.889Z,45.60
2019-03-01T05:06:02.364Z,45.41
2019-03-01T05:08:34.005Z,45.58
2019-03-01T05:11:05.797Z,45.80
2019-03-01T05:13:37.292Z,45.63
2019-03-01T05:16:08.792Z,46.46
2019-03-01T05:18:40.308Z,46.60
2019-03-01T05:21:11.970Z,46.28
2019-03-01T05:23:43.406Z,46.48
2019-03-01T05:26:15.239Z,46.14
2019-03-01T05:28:46.628Z,46.02
2019-03-01T05:31:18.130Z,45.71
2019-03-01T05:33:49.507Z,45.44
2019-03-01T05:36:21.039Z,45.62
2019-03-01T05:38:52.587Z,45.44
2019-03-01T05:41:24.210Z,45.38
2019-03-01T05:43:55.522Z,45.59
2019-03-01T05:46:26.795Z,46.01
2019-03-01T05:48:58.462Z,45.58
2019-03-01T05:51:30.118Z,45.21
2019-03-01T05:54:01.769Z,45.14
2019-03-01T05:56:33.415Z,44.63
2019-03-01T05:59:20.290Z,43.54
2019-03-01T06:02:22.003Z,42.60
2019-03-01T06:04:56.876Z,41.65
2019-03-01T06:08:08.665Z,39.99
2019-03-01T06:11:10.590Z,38.55
2019-03-01T06:14:12.666Z,37.99
2019-03-01T06:17:19.232Z,36.98
2019-03-01T06:20:43.199Z,36.67
2019-03-01T06:23:32.475Z,35.49
2019-03-01T06:26:36.499Z,35.45
2019-03-01T06:29:50.969Z,35.06
2019-03-01T06:32:56.824Z,34.74
2019-03-01T06:35:57.145Z,34.36
2019-03-01T06:39:37.717Z,33.89
2019-03-01T06:42:54.316Z,34.23
2019-03-01T06:46:02.357Z,33.79
2019-03-01T06:48:45.565Z,33.86
2019-03-01T06:51:29.410Z,33.24
2019-03-01T06:54:00.962Z,33.84
2019-03-01T06:56:32.288Z,33.40
2019-03-01T06:59:05.596Z,33.29
2019-03-01T07:01:42.816Z,32.79
2019-03-01T07:04:22.900Z,33.49
2019-03-01T07:06:54.319Z,33.49
2019-03-01T07:09:25.718Z,33.49
2019-03-01T07:11:56.798Z,33.76
2019-03-01T07:14:28.033Z,33.28
2019-03-01T07:16:59.079Z,34.36
2019-03-01T07:19:32.435Z,34.36
2019-03-01T07:22:03.563Z,34.21
2019-03-01T07:24:34.824Z,34.13
2019-03-01T07:27:05.950Z,34.27
2019-03-01T07:29:37.481Z,33.96
2019-03-01T07:32:08.665Z,33.86
2019-03-01T07:34:39.818Z,33.86
2019-03-01T07:37:10.978Z,34.25
2019-03-01T07:39:42.568Z,34.25
2019-03-01T07:42:14.034Z,34.00
2019-03-01T07:44:45.457Z,34.20
2019-03-01T07:47:16.601Z,34.20
2019-03-01T07:49:47.948Z,34.02
2019-03-01T07:52:19.286Z,34.53
2019-03-01T07:54:52.785Z,34.76
2019-03-01T07:57:23.975Z,34.93
2019-03-01T07:59:55.129Z,35.05
2019-03-01T08:02:26.454Z,35.30
2019-03-01T08:05:00.075Z,35.63
2019-03-01T08:07:30.906Z,35.21
2019-03-01T08:10:02.245Z,35.42
2019-03-01T08:12:34.218Z,34.92
2019-03-01T08:15:08.198Z,35.30
2019-03-01T08:17:39.235Z,34.14
2019-03-01T08:20:13.025Z,34.66
2019-03-01T08:22:49.101Z,34.66
2019-03-01T08:25:23.490Z,33.83
2019-03-01T08:27:51.807Z,33.60
2019-03-01T08:30:23.173Z,33.03
2019-03-01T08:32:54.705Z,33.49
2019-03-01T08:35:28.331Z,33.41
2019-03-01T08:37:59.597Z,33.60
2019-03-01T08:40:31.045Z,33.70
2019-03-01T08:43:02.546Z,33.29
2019-03-01T08:45:33.922Z,33.75
2019-03-01T08:48:05.598Z,34.44
2019-03-01T08:50:36.856Z,34.44
2019-03-01T08:53:11.474Z,34.33
2019-03-01T08:55:41.471Z,34.33
2019-03-01T08:58:12.941Z,34.71
2019-03-01T09:00:44.309Z,34.40
2019-03-01T09:03:24.178Z,34.40
2019-03-01T09:05:57.006Z,34.63
2019-03-01T09:08:28.068Z,34.04
2019-03-01T09:10:59.569Z,34.15
2019-03-01T09:13:30.766Z,33.23
2019-03-01T09:16:02.375Z,33.05
2019-03-01T09:18:33.986Z,32.95
2019-03-01T09:21:06.249Z,32.47
2019-03-01T09:23:39.594Z,32.89
2019-03-01T09:26:10.868Z,32.78
2019-03-01T09:28:42.151Z,33.21
2019-03-01T09:31:13.691Z,33.21
2019-03-01T09:33:45.354Z,32.89
2019-03-01T09:36:29.896Z,33.36
2019-03-01T09:39:01.256Z,33.67
2019-03-01T09:41:36.593Z,33.00
2019-03-01T09:44:07.304Z,33.01
2019-03-01T09:46:38.489Z,32.81
2019-03-01T09:49:09.876Z,32.44
2019-03-01T09:51:43.700Z,32.35
2019-03-01T09:54:15.221Z,32.15
2019-03-01T09:56:46.664Z,32.15
2019-03-01T09:59:18.356Z,31.34
2019-03-01T10:01:49.578Z,31.34
2019-03-01T10:04:20.674Z,30.53
2019-03-01T10:06:52.121Z,30.81
2019-03-01T10:09:23.565Z,30.42
2019-03-01T10:11:55.032Z,30.75
2019-03-01T10:14:26.531Z,30.75
2019-03-01T10:16:58.470Z,31.08
2019-03-01T10:19:29.708Z,30.61
2019-03-01T10:22:00.651Z,30.96
2019-03-01T10:24:31.761Z,31.15
2019-03-01T10:27:03.115Z,31.68
2019-03-01T10:29:34.177Z,31.68
2019-03-01T10:32:05.372Z,31.41
2019-03-01T10:34:36.754Z,31.42
2019-03-01T10:37:07.965Z,31.25
2019-03-01T10:39:39.140Z,32.01
2019-03-01T10:42:10.113Z,32.01
2019-03-01T10:44:41.228Z,32.56
2019-03-01T10:47:12.205Z,32.07
2019-03-01T10:49:43.480Z,32.28
2019-03-01T10:52:14.633Z,32.69
2019-03-01T10:54:46.087Z,32.31
2019-03-01T10:57:17.237Z,31.90
2019-03-01T10:59:48.335Z,32.52
2019-03-01T11:02:19.689Z,32.32
2019-03-01T11:04:51.139Z,31.49
2019-03-01T11:07:22.593Z,31.45
2019-03-01T11:09:53.898Z,31.77
2019-03-01T11:12:25.311Z,31.44
2019-03-01T11:14:56.523Z,31.53
2019-03-01T11:17:27.983Z,31.44
2019-03-01T11:19:59.089Z,30.23
2019-03-01T11:22:30.402Z,31.37
2019-03-01T11:25:01.829Z,30.29
2019-03-01T11:27:33.147Z,30.20
2019-03-01T11:30:04.686Z,29.78
2019-03-01T11:32:35.805Z,30.23
2019-03-01T11:35:07.509Z,30.53
2019-03-01T11:37:38.850Z,30.49
2019-03-01T11:40:12.434Z,30.78
2019-03-01T11:42:44.091Z,30.32
2019-03-01T11:45:15.802Z,30.50
2019-03-01T11:47:47.174Z,29.78
2019-03-01T11:50:20.383Z,30.77
2019-03-01T11:52:51.655Z,31.13
2019-03-01T11:55:23.337Z,31.25
2019-03-01T11:57:54.869Z,31.43
2019-03-01T12:00:26.241Z,31.43
2019-03-01T12:02:57.463Z,31.28
2019-03-01T12:05:28.731Z,31.35
2019-03-01T12:07:59.997Z,31.66
2019-03-01T12:10:31.665Z,31.17
2019-03-01T12:13:02.771Z,30.50
2019-03-01T12:15:34.145Z,30.50
2019-03-01T12:18:05.379Z,30.93
2019-03-01T12:20:36.674Z,30.96
2019-03-01T12:23:07.932Z,31.79
2019-03-01T12:25:39.106Z,31.74
2019-03-01T12:28:10.541Z,31.43
2019-03-01T12:30:41.714Z,31.36
2019-03-01T12:33:13.025Z,31.28
2019-03-01T12:35:45.688Z,31.57
2019-03-01T12:38:16.832Z,32.17
2019-03-01T12:40:47.973Z,32.41
2019-03-01T12:43:19.242Z,32.70
2019-03-01T12:45:50.492Z,32.87
2019-03-01T12:48:21.776Z,32.92
2019-03-01T12:50:53.008Z,33.04
2019-03-01T12:53:24.249Z,33.35
2019-03-01T12:55:55.518Z,33.68
2019-03-01T12:58:26.534Z,34.22
2019-03-01T13:00:57.684Z,33.85
2019-03-01T13:03:30.098Z,33.42
2019-03-01T13:06:03.857Z,33.93
2019-03-01T13:08:34.214Z,33.93
2019-03-01T13:11:05.129Z,34.59
2019-03-01T13:13:38.433Z,33.94
2019-03-01T13:16:08.669Z,32.61
2019-03-01T13:18:39.996Z,32.44
2019-03-01T13:21:12.957Z,32.66
2019-03-01T13:23:45.429Z,32.91
2019-03-01T13:26:16.729Z,33.29
2019-03-01T13:28:47.878Z,33.56
2019-03-01T13:31:18.913Z,33.06
2019-03-01T13:33:49.869Z,33.47
2019-03-01T13:36:21.102Z,33.30
2019-03-01T13:38:52.280Z,33.79
2019-03-01T13:41:25.275Z,34.28
2019-03-01T13:43:56.527Z,33.65
2019-03-01T13:46:30.023Z,33.51
2019-03-01T13:49:00.856Z,33.18
2019-03-01T13:51:32.247Z,33.29
2019-03-01T13:54:05.800Z,32.99
2019-03-01T13:56:36.833Z,33.08
2019-03-01T13:59:07.887Z,33.55
2019-03-01T14:01:38.973Z,33.55
2019-03-01T14:04:10.979Z,33.14
2019-03-01T14:06:42.069Z,32.79
2019-03-01T14:09:15.582Z,32.43
2019-03-01T14:11:46.778Z,32.50
2019-03-01T14:14:18.009Z,32.47
2019-03-01T14:16:49.294Z,32.87
2019-03-01T14:19:20.711Z,32.98
2019-03-01T14:21:52.049Z,33.00
2019-03-01T14:24:25.962Z,33.19
2019-03-01T14:26:58.544Z,32.89
2019-03-01T14:29:29.463Z,32.15
2019-03-01T14:32:00.821Z,31.87
2019-03-01T14:34:31.898Z,32.45
2019-03-01T14:37:02.911Z,32.68
2019-03-01T14:39:34.435Z,32.65
2019-03-01T14:42:07.217Z,32.61
2019-03-01T14:44:39.620Z,33.03
2019-03-01T14:47:10.593Z,33.05
2019-03-01T14:49:41.803Z,33.27
2019-03-01T14:52:12.883Z,33.30
2019-03-01T14:54:45.128Z,33.39
2019-03-01T14:57:30.388Z,33.57
2019-03-01T15:00:28.575Z,33.49
2019-03-01T15:03:16.507Z,33.66
2019-03-01T15:05:48.429Z,34.42
2019-03-01T15:08:19.422Z,34.42
2019-03-01T15:10:50.718Z,34.26
2019-03-01T15:13:22.051Z,34.53
2019-03-01T15:15:53.344Z,35.04
2019-03-01T15:18:25.142Z,35.04
2019-03-01T15:21:01.297Z,34.69
2019-03-01T15:23:30.183Z,35.62
2019-03-01T15:26:01.463Z,35.62
2019-03-01T15:28:32.787Z,35.11
2019-03-01T15:31:03.735Z,35.57
2019-03-01T15:33:34.821Z,35.51
2019-03-01T15:36:05.947Z,35.51
2019-03-01T15:38:36.955Z,36.52
2019-03-01T15:41:07.931Z,36.52
2019-03-01T15:43:39.389Z,36.35
2019-03-01T15:46:11.536Z,36.45
2019-03-01T15:48:43.482Z,36.63
2019-03-01T15:51:15.600Z,36.63
2019-03-01T15:53:46.889Z,36.48
2019-03-01T15:56:18.203Z,36.48
2019-03-01T15:58:49.510Z,36.88
2019-03-01T16:01:20.752Z,36.61
2019-03-01T16:03:54.106Z,36.99
2019-03-01T16:06:24.816Z,36.69
2019-03-01T16:08:56.145Z,36.68
2019-03-01T16:11:27.478Z,36.72
2019-03-01T16:13:58.704Z,36.76
2019-03-01T16:16:29.635Z,37.31
2019-03-01T16:19:00.659Z,37.38
2019-03-01T16:21:31.921Z,37.38
2019-03-01T16:24:04.988Z,37.52
2019-03-01T16:26:37.242Z,37.51
2019-03-01T16:29:08.541Z,37.96
2019-03-01T16:31:39.972Z,38.17
2019-03-01T16:34:11.271Z,38.24
2019-03-01T16:36:45.398Z,38.40
2019-03-01T16:39:16.779Z,38.27
2019-03-01T16:41:47.684Z,38.60
2019-03-01T16:44:19.727Z,38.27
2019-03-01T16:46:51.057Z,38.88
2019-03-01T16:49:23.606Z,38.85
2019-03-01T16:51:55.126Z,39.08
2019-03-01T16:54:26.410Z,38.71
2019-03-01T16:56:57.328Z,38.88
2019-03-01T16:59:28.553Z,39.30
2019-03-01T17:02:06.192Z,39.04
2019-03-01T17:04:32.169Z,39.19
2019-03-01T17:07:04.493Z,39.30
2019-03-01T17:09:35.802Z,39.22
2019-03-01T17:12:07.030Z,38.76
2019-03-01T17:14:38.751Z,38.76
2019-03-01T17:17:10.706Z,38.69
2019-03-01T17:19:41.728Z,39.15
2019-03-01T17:22:13.129Z,39.66
2019-03-01T17:24:44.407Z,40.34
2019-03-01T17:27:15.654Z,41.21
2019-03-01T17:29:46.617Z,41.60
2019-03-01T17:32:17.941Z,41.97
2019-03-01T17:34:49.197Z,41.89
2019-03-01T17:37:20.275Z,42.25
2019-03-01T17:39:53.181Z,42.22
2019-03-01T17:42:24.352Z,42.20
2019-03-01T17:44:55.577Z,42.17
2019-03-01T17:47:26.721Z,42.38
2019-03-01T17:49:57.766Z,42.13
2019-03-01T17:52:30.543Z,42.06
2019-03-01T17:55:02.794Z,41.83
2019-03-01T17:57:34.178Z,42.16
2019-03-01T18:00:08.997Z,41.95
2019-03-01T18:02:40.453Z,41.95
2019-03-01T18:05:13.008Z,41.71
2019-03-01T18:07:44.213Z,42.74
2019-03-01T18:10:16.076Z,42.52
2019-03-01T18:12:46.954Z,42.42
2019-03-01T18:15:18.471Z,42.53
2019-03-01T18:17:49.742Z,42.39
2019-03-01T18:20:20.963Z,42.87
2019-03-01T18:22:52.199Z,43.00
2019-03-01T18:25:26.224Z,43.16
2019-03-01T18:27:56.571Z,43.67
2019-03-01T18:30:29.910Z,43.82
2019-03-01T18:33:00.578Z,43.83
2019-03-01T18:35:32.231Z,44.48
2019-03-01T18:38:04.079Z,44.79
2019-03-01T18:40:35.742Z,44.59
2019-03-01T18:43:09.729Z,44.62
2019-03-01T18:45:41.985Z,44.75
2019-03-01T18:48:13.359Z,44.36
2019-03-01T18:50:44.419Z,44.58
2019-03-01T18:53:15.570Z,44.63
2019-03-01T18:55:49.599Z,44.46
2019-03-01T18:58:20.067Z,44.21
2019-03-01T19:00:51.508Z,43.88
2019-03-01T19:03:22.878Z,44.36
2019-03-01T19:05:54.048Z,44.26
2019-03-01T19:08:26.093Z,44.65
2019-03-01T19:10:59.767Z,44.44
2019-03-01T19:13:30.185Z,44.72
2019-03-01T19:16:01.774Z,44.94
2019-03-01T19:18:33.030Z,44.71
2019-03-01T19:21:04.730Z,45.38
2019-03-01T19:23:37.584Z,45.17
2019-03-01T19:26:08.942Z,45.42
2019-03-01T19:28:40.676Z,45.42
2019-03-01T19:31:12.274Z,45.68
2019-03-01T19:33:43.638Z,45.46
2019-03-01T19:36:14.912Z,45.49
2019-03-01T19:38:46.508Z,45.53
2019-03-01T19:41:20.045Z,45.35
2019-03-01T19:43:57.399Z,45.39
2019-03-01T19:46:26.588Z,45.42
2019-03-01T19:48:58.092Z,45.18
2019-03-01T19:51:29.641Z,45.23
2019-03-01T19:54:02.108Z,45.46
2019-03-01T19:56:33.446Z,45.93
2019-03-01T19:59:04.966Z,45.75
2019-03-01T20:01:36.388Z,45.45
2019-03-01T20:04:08.057Z,45.29
2019-03-01T20:06:39.847Z,45.27
2019-03-01T20:09:13.221Z,45.04
2019-03-01T20:11:44.554Z,44.94
2019-03-01T20:14:16.920Z,44.50
2019-03-01T20:16:48.373Z,44.24
2019-03-01T20:19:20.870Z,44.00
2019-03-01T20:21:52.878Z,43.85
2019-03-01T20:24:24.502Z,43.81
2019-03-01T20:26:56.672Z,43.74
2019-03-01T20:29:27.963Z,43.59
2019-03-01T20:31:59.211Z,43.31
2019-03-01T20:34:31.278Z,43.73
2019-03-01T20:37:02.478Z,43.50
2019-03-01T20:39:33.767Z,43.11
2019-03-01T20:42:05.093Z,43.12
2019-03-01T20:44:36.260Z,42.91
2019-03-01T20:47:07.569Z,43.55
2019-03-01T20:49:39.425Z,43.37
2019-03-01T20:52:11.774Z,44.03
2019-03-01T20:54:43.408Z,43.54
2019-03-01T20:57:14.340Z,43.57
2019-03-01T20:59:46.848Z,43.44
2019-03-01T21:02:17.869Z,44.22
2019-03-01T21:04:53.324Z,45.39
2019-03-01T21:07:22.980Z,45.66
2019-03-01T21:09:54.609Z,45.81
2019-03-01T21:12:26.068Z,46.36
2019-03-01T21:14:58.692Z,46.84
2019-03-01T21:17:30.237Z,46.96
2019-03-01T21:20:01.623Z,47.33
2019-03-01T21:22:33.148Z,47.88
2019-03-01T21:25:05.056Z,48.09
2019-03-01T21:27:36.365Z,48.42
2019-03-01T21:30:11.337Z,48.43
2019-03-01T21:32:42.743Z,48.63
2019-03-01T21:35:16.679Z,50.13
2019-03-01T21:37:47.383Z,48.88
2019-03-01T21:40:19.895Z,48.42
2019-03-01T21:42:52.932Z,48.48
2019-03-01T21:45:24.433Z,48.95
2019-03-01T21:47:55.831Z,49.95
2019-03-01T21:50:27.491Z,49.69
2019-03-01T21:53:01.741Z,49.20
2019-03-01T21:55:32.095Z,50.27
2019-03-01T21:58:06.645Z,50.99
2019-03-01T22:00:37.043Z,50.50
2019-03-01T22:03:08.451Z,49.93
2019-03-01T22:05:39.950Z,50.28
2019-03-01T22:08:12.994Z,50.19
2019-03-01T22:10:44.690Z,50.40
2019-03-01T22:13:16.304Z,50.70
2019-03-01T22:15:47.655Z,50.73
2019-03-01T22:18:20.434Z,50.93
2019-03-01T22:20:52.352Z,51.46
2019-03-01T22:23:23.625Z,51.10
2019-03-01T22:25:55.635Z,50.98
2019-03-01T22:28:27.553Z,50.79
2019-03-01T22:31:00.229Z,50.81
2019-03-01T22:33:32.775Z,50.62
2019-03-01T22:36:04.394Z,50.96
2019-03-01T22:38:37.625Z,51.49
2019-03-01T22:41:08.988Z,51.60
2019-03-01T22:43:40.536Z,51.67
2019-03-01T22:46:11.860Z,52.15
2019-03-01T22:48:47.007Z,51.81
2019-03-01T22:51:17.949Z,51.92
2019-03-01T22:53:49.406Z,51.62
2019-03-01T22:56:22.519Z,51.88
2019-03-01T22:58:53.844Z,51.71
2019-03-01T23:01:36.357Z,52.66
2019-03-01T23:04:08.293Z,53.17
2019-03-01T23:06:39.653Z,53.20
2019-03-01T23:09:15.554Z,53.72
2019-03-01T23:11:47.142Z,53.75
2019-03-01T23:14:18.500Z,54.43
2019-03-01T23:16:50.661Z,54.49
2019-03-01T23:19:22.885Z,54.77
2019-03-01T23:21:54.577Z,54.96
2019-03-01T23:24:25.803Z,55.48
2019-03-01T23:26:57.791Z,55.92
2019-03-01T23:29:29.152Z,55.65
2019-03-01T23:32:00.493Z,55.71
2019-03-01T23:34:32.120Z,55.92
2019-03-01T23:37:03.638Z,56.13
2019-03-01T23:39:37.066Z,55.99
2019-03-01T23:42:08.651Z,55.80
2019-03-01T23:44:41.571Z,55.81
2019-03-01T23:47:14.172Z,55.59
2019-03-01T23:49:45.392Z,55.34
2019-03-01T23:52:19.584Z,55.42
2019-03-01T23:54:49.689Z,55.91
2019-03-01T23:57:21.451Z,55.93
2019-03-01T23:59:52.906Z,55.90
